Time;durP1;ratioP1;P1;durP2;ratioP2;P2;SDS_P1;SDS_P2;PMS_P1;PMS_P2;Temp;Humidity;BMP_temperature;BMP_pressure;BME280_temperature;BME280_humidity;BME280_pressure;Samples;Min_cycle;Max_cycle;Signal;HPM_P1;HPM_P2
2024/02/12 00:00:18;;;;;;;3.72;2.38;;;;;;;6.02;75.82;91219.50;2064605;69;20153;-78
2024/02/12 00:02:47;;;;;;;2.95;2.17;;;;;;;6.23;75.27;91224.06;2064764;69;20148;-79
2024/02/12 00:05:13;;;;;;;2.95;2.05;;;;;;;6.23;74.71;91216.44;2065444;69;20137;-76
2024/02/12 00:07:39;;;;;;;3.22;2.13;;;;;;;6.30;74.38;91217.47;2065401;69;20607;-76
2024/02/12 00:10:11;;;;;;;3.53;2.10;;;;;;;6.35;74.01;91217.06;2065476;69;20224;-77
2024/02/12 00:12:41;;;;;;;2.95;1.83;;;;;;;6.35;73.41;91213.53;2064873;69;20224;-77
2024/02/12 00:15:08;;;;;;;1.83;1.30;;;;;;;6.38;73.58;91220.69;2065355;69;20235;-76
2024/02/12 00:17:35;;;;;;;4.22;1.83;;;;;;;6.15;74.35;91218.06;2065015;69;20145;-77
2024/02/12 00:20:06;;;;;;;3.15;1.90;;;;;;;6.28;73.87;91215.31;2064755;69;20233;-76
2024/02/12 00:22:33;;;;;;;5.05;2.47;;;;;;;5.67;76.65;91222.47;2062066;69;20605;-78
2024/02/12 00:25:00;;;;;;;5.38;2.20;;;;;;;5.93;75.96;91218.31;2065365;69;20209;-77
2024/02/12 00:27:27;;;;;;;2.50;2.00;;;;;;;6.12;74.71;91214.44;2065152;69;20144;-78
2024/02/12 00:29:52;;;;;;;4.30;2.10;;;;;;;6.01;74.70;91218.75;2065360;69;20172;-78
2024/02/12 00:32:20;;;;;;;2.72;2.00;;;;;;;5.98;75.46;91216.47;2065441;69;20212;-78
2024/02/12 00:34:57;;;;;;;2.72;1.88;;;;;;;6.17;74.41;91224.47;2065476;69;20145;-78
2024/02/12 00:37:26;;;;;;;3.83;1.70;;;;;;;6.22;74.28;91225.41;2065118;69;20248;-78
2024/02/12 00:39:52;;;;;;;4.63;2.20;;;;;;;5.97;75.07;91224.13;2064833;69;20593;-79
2024/02/12 00:42:18;;;;;;;6.10;2.15;;;;;;;6.06;75.18;91222.50;2065372;69;20156;-78
2024/02/12 00:44:44;;;;;;;4.53;2.42;;;;;;;6.08;74.49;91225.38;2064913;69;20153;-78
2024/02/12 00:47:10;;;;;;;4.60;2.10;;;;;;;6.05;74.65;91230.16;2065057;69;20664;-77
2024/02/12 00:49:39;;;;;;;2.92;2.08;;;;;;;6.12;74.74;91236.78;2065256;69;20191;-77
2024/02/12 00:52:09;;;;;;;3.40;2.10;;;;;;;6.00;75.54;91239.66;2065324;69;20203;-76
2024/02/12 00:54:39;;;;;;;3.10;1.90;;;;;;;6.00;74.83;91228.50;2064537;69;20232;-77
2024/02/12 00:57:07;;;;;;;3.33;2.15;;;;;;;6.07;74.53;91229.53;2065286;69;20160;-76
2024/02/12 00:59:39;;;;;;;4.03;2.13;;;;;;;6.10;75.03;91223.44;2064918;69;20161;-77
2024/02/12 01:02:05;;;;;;;4.13;2.47;;;;;;;6.10;74.61;91229.03;2064802;69;20129;-78
2024/02/12 01:04:31;;;;;;;2.80;2.00;;;;;;;6.18;74.38;91225.19;2064596;69;20470;-77
2024/02/12 01:06:59;;;;;;;3.45;1.92;;;;;;;6.17;74.55;91224.47;2065294;69;20137;-77
2024/02/12 01:09:26;;;;;;;3.42;2.00;;;;;;;6.14;74.83;91225.72;2065238;69;20140;-77
2024/02/12 01:11:52;;;;;;;3.53;1.95;;;;;;;6.15;74.73;91226.47;2064726;69;20168;-78
2024/02/12 01:14:19;;;;;;;5.18;1.85;;;;;;;6.15;74.24;91227.19;2065195;69;20140;-77
2024/02/12 01:16:45;;;;;;;2.50;1.70;;;;;;;6.21;73.94;91227.50;2065221;69;20168;-78
2024/02/12 01:19:12;;;;;;;2.35;1.30;;;;;;;6.14;73.80;91222.19;2065229;69;20151;-78
2024/02/12 01:21:39;;;;;;;7.00;2.72;;;;;;;5.57;76.29;91223.34;2064726;69;20148;-77
2024/02/12 01:24:06;;;;;;;3.03;2.05;;;;;;;5.61;75.92;91234.75;2065279;69;20636;-77
2024/02/12 01:26:36;;;;;;;4.30;2.40;;;;;;;5.85;75.63;91220.66;2064799;69;20141;-77
2024/02/12 01:29:05;;;;;;;3.38;2.53;;;;;;;5.96;75.25;91227.56;2065241;69;20141;-76
2024/02/12 01:31:32;;;;;;;4.22;2.25;;;;;;;6.01;74.45;91229.94;2065334;69;20160;-77
2024/02/12 01:33:57;;;;;;;4.22;2.13;;;;;;;6.01;75.10;91234.81;2065158;69;20141;-76
2024/02/12 01:36:25;;;;;;;3.88;2.00;;;;;;;6.01;74.61;91229.22;2065080;69;20137;-77
2024/02/12 01:38:51;;;;;;;2.15;1.60;;;;;;;6.05;74.50;91235.03;2065505;69;20168;-77
2024/02/12 01:41:18;;;;;;;3.03;1.80;;;;;;;5.63;76.08;91252.94;2066279;69;20145;-77
2024/02/12 01:43:46;;;;;;;2.38;1.83;;;;;;;5.43;77.74;91258.84;2065730;69;20148;-77
2024/02/12 01:46:13;;;;;;;2.63;1.90;;;;;;;5.37;77.25;91255.00;2062996;69;20243;-78
2024/02/12 01:48:40;;;;;;;2.28;1.83;;;;;;;4.85;78.94;91260.47;2066290;69;20528;-78
2024/02/12 01:51:07;;;;;;;2.60;1.80;;;;;;;5.08;79.04;91256.16;2066538;69;20240;-78
2024/02/12 01:53:44;;;;;;;4.55;1.88;;;;;;;5.27;78.17;91255.16;2065976;69;20155;-77
2024/02/12 01:56:10;;;;;;;4.22;1.67;;;;;;;5.58;76.77;91241.53;2066135;69;20137;-78
2024/02/12 01:58:38;;;;;;;4.15;1.70;;;;;;;5.49;77.02;91250.09;2065577;69;20597;-78
2024/02/12 02:01:07;;;;;;;4.05;1.77;;;;;;;5.71;75.48;91248.53;2066013;69;20175;-78
2024/02/12 02:03:33;;;;;;;1.92;1.73;;;;;;;5.72;74.81;91241.59;2066210;69;20218;-78
2024/02/12 02:05:59;;;;;;;2.55;2.00;;;;;;;5.48;76.39;91241.00;2066385;69;20148;-78
2024/02/12 02:08:34;;;;;;;2.92;1.90;;;;;;;5.70;75.57;91252.66;2065515;69;20234;-78
2024/02/12 02:11:00;;;;;;;2.35;1.70;;;;;;;5.73;75.82;91259.81;2066079;69;20209;-78
2024/02/12 02:13:28;;;;;;;2.47;1.90;;;;;;;5.81;75.41;91245.56;2065860;69;20690;-78
2024/02/12 02:15:55;;;;;;;2.28;1.70;;;;;;;5.73;75.74;91248.66;2066135;69;20265;-78
2024/02/12 02:18:21;;;;;;;1.80;1.50;;;;;;;5.53;76.63;91248.25;2064622;69;20591;-78
2024/02/12 02:20:46;;;;;;;4.13;1.65;;;;;;;5.81;75.54;91239.97;2065306;69;20156;-78
2024/02/12 02:23:12;;;;;;;1.65;1.30;;;;;;;5.82;75.06;91238.66;2065780;69;20168;-77
2024/02/12 02:25:39;;;;;;;3.50;1.42;;;;;;;5.92;74.91;91242.03;2065529;69;20529;-77
2024/02/12 02:28:05;;;;;;;1.77;1.27;;;;;;;5.80;75.03;91238.53;2065879;69;20141;-78
2024/02/12 02:30:30;;;;;;;2.05;1.73;;;;;;;5.77;75.09;91253.72;2066165;69;20161;-78
2024/02/12 02:32:57;;;;;;;3.63;1.60;;;;;;;5.76;75.39;91241.09;2065438;69;20151;-79
2024/02/12 02:35:23;;;;;;;2.20;1.70;;;;;;;5.63;75.69;91236.91;2065931;69;20155;-79
2024/02/12 02:37:49;;;;;;;1.42;1.17;;;;;;;5.74;74.95;91232.63;2066096;69;20528;-79
2024/02/12 02:40:14;;;;;;;1.15;1.05;;;;;;;5.80;73.93;91228.09;2066108;69;20529;-78
2024/02/12 02:46:27;;;;;;;2.60;1.60;;;;;;;5.48;75.16;91240.28;2065912;69;20221;-77
2024/02/12 02:49:10;;;;;;;2.13;1.40;;;;;;;5.71;74.53;91231.78;2066082;69;20124;-76
2024/02/12 02:51:50;;;;;;;1.83;1.23;;;;;;;5.81;74.61;91235.13;2065558;69;20173;-78
2024/02/12 02:54:19;;;;;;;2.75;1.20;;;;;;;5.90;74.33;91246.72;2064981;69;20210;-78
2024/02/12 02:56:46;;;;;;;2.20;1.42;;;;;;;5.43;75.04;91241.38;2065690;69;20597;-77
2024/02/12 02:59:12;;;;;;;3.13;1.77;;;;;;;5.39;76.33;91252.31;2065636;69;20670;-78
2024/02/12 03:01:38;;;;;;;3.15;1.60;;;;;;;5.29;76.32;91256.00;2065417;69;20156;-78
2024/02/12 03:04:04;;;;;;;5.32;1.83;;;;;;;5.68;75.43;91260.19;2064973;69;20145;-76
2024/02/12 03:06:31;;;;;;;3.10;1.70;;;;;;;5.80;74.77;91260.88;2065308;69;20125;-77
2024/02/12 03:08:58;;;;;;;1.85;1.40;;;;;;;5.77;74.65;91248.88;2065507;69;20137;-77
2024/02/12 03:11:30;;;;;;;2.60;1.40;;;;;;;5.69;74.56;91245.63;2065274;69;20144;-76
2024/02/12 03:13:57;;;;;;;3.28;1.60;;;;;;;5.55;75.35;91253.22;2064989;69;20136;-77
2024/02/12 03:16:27;;;;;;;4.30;1.85;;;;;;;5.62;74.79;91232.69;2065602;69;20133;-77
2024/02/12 03:18:59;;;;;;;3.50;1.48;;;;;;;5.73;74.79;91265.41;2065104;69;20517;-77
2024/02/12 03:21:29;;;;;;;1.90;1.40;;;;;;;5.74;74.74;91254.97;2065246;69;20156;-78
2024/02/12 03:24:00;;;;;;;2.42;1.40;;;;;;;5.59;75.20;91256.25;2064638;69;20197;-77
2024/02/12 03:26:30;;;;;;;3.30;1.80;;;;;;;5.60;75.11;91255.63;2064904;69;20259;-78
2024/02/12 03:29:00;;;;;;;1.70;1.35;;;;;;;5.51;75.08;91239.06;2065512;69;20129;-77
2024/02/12 03:31:26;;;;;;;5.20;1.60;;;;;;;5.47;75.59;91261.88;2065597;69;20604;-77
2024/02/12 03:33:53;;;;;;;3.75;1.85;;;;;;;5.50;75.57;91252.28;2065429;69;20148;-77
2024/02/12 03:36:19;;;;;;;2.10;1.70;;;;;;;5.60;74.95;91257.69;2064885;69;20145;-77
2024/02/12 03:38:45;;;;;;;2.95;1.77;;;;;;;5.56;75.21;91249.09;2065236;69;20202;-77
2024/02/12 03:41:24;;;;;;;3.10;1.45;;;;;;;5.45;74.87;91247.81;2065334;69;20176;-77
2024/02/12 03:43:55;;;;;;;3.10;2.10;;;;;;;5.42;75.03;91249.03;2065002;69;20176;-76
2024/02/12 03:46:28;;;;;;;3.70;2.35;;;;;;;5.52;74.77;91252.38;2065497;69;20161;-77
2024/02/12 03:59:53;;;;;;;1.63;1.20;;;;;;;5.16;74.40;91244.75;2064925;69;20141;-78
2024/02/12 04:06:12;;;;;;;1.30;1.20;;;;;;;5.10;74.55;91273.03;2065304;69;20521;-77
2024/02/12 04:08:41;;;;;;;3.83;1.40;;;;;;;5.10;74.52;91273.03;2065353;69;20155;-78
2024/02/12 04:11:16;;;;;;;2.80;1.50;;;;;;;5.12;74.27;91278.00;2065709;69;20144;-77
2024/02/12 04:17:38;;;;;;;2.78;0.93;;;;;;;5.10;74.30;91292.56;2065431;69;20194;-77
2024/02/12 04:20:10;;;;;;;1.90;1.55;;;;;;;5.06;74.18;91292.31;2065499;69;20143;-76
2024/02/12 04:22:38;;;;;;;8.43;4.07;;;;;;;4.80;76.11;91297.81;2065433;69;20148;-76
2024/02/12 04:25:08;;;;;;;9.15;5.00;;;;;;;4.94;75.69;91292.34;2065241;69;20148;-76
2024/02/12 04:27:41;;;;;;;7.63;4.93;;;;;;;5.04;75.32;91286.63;2065303;69;20141;-76
2024/02/12 04:30:17;;;;;;;7.93;4.72;;;;;;;5.01;75.22;91285.06;2064947;69;20156;-76
2024/02/12 04:32:47;;;;;;;6.85;4.13;;;;;;;4.66;76.86;91294.19;2064811;69;20156;-78
2024/02/12 04:35:16;;;;;;;7.97;4.40;;;;;;;4.84;75.98;91300.13;2065284;69;20232;-78
2024/02/12 04:37:46;;;;;;;7.00;3.90;;;;;;;4.87;76.04;91298.91;2064664;69;20172;-78
2024/02/12 04:40:20;;;;;;;7.68;4.90;;;;;;;4.89;76.00;91293.44;2065406;69;20149;-78
2024/02/12 04:46:37;;;;;;;17.23;8.70;;;;;;;4.89;76.19;91290.66;2065067;69;20246;-78
2024/02/12 04:49:04;;;;;;;11.27;6.68;;;;;;;4.95;75.50;91288.22;2065303;69;20145;-79
2024/02/12 04:51:33;;;;;;;14.57;7.03;;;;;;;5.08;75.48;91293.16;2064923;69;20169;-78
2024/02/12 04:53:59;;;;;;;12.60;6.80;;;;;;;5.04;75.34;91283.81;2065472;69;20218;-79
2024/02/12 04:56:25;;;;;;;13.00;7.13;;;;;;;4.90;75.70;91277.44;2065405;69;20236;-79
2024/02/12 04:58:51;;;;;;;13.23;7.32;;;;;;;4.96;75.56;91280.59;2065194;69;20145;-79
2024/02/12 05:01:16;;;;;;;16.73;6.88;;;;;;;4.94;75.56;91280.44;2065349;69;20140;-79
2024/02/12 05:03:42;;;;;;;8.73;5.03;;;;;;;4.92;75.35;91286.66;2065361;69;20144;-79
2024/02/12 05:06:08;;;;;;;12.50;5.90;;;;;;;4.66;75.80;91288.59;2064873;69;20128;-78
2024/02/12 05:08:34;;;;;;;23.38;10.60;;;;;;;4.03;78.86;91301.53;2065283;69;20224;-78
2024/02/12 05:11:00;;;;;;;15.45;6.47;;;;;;;4.17;79.50;91304.44;2065462;69;20129;-78
2024/02/12 05:13:25;;;;;;;12.00;5.90;;;;;;;4.58;77.17;91302.81;2065283;69;20141;-78
2024/02/12 05:15:52;;;;;;;10.60;5.28;;;;;;;4.57;76.67;91292.97;2064822;69;20164;-79
2024/02/12 05:23:53;;;;;;;9.43;4.90;;;;;;;4.42;77.75;91323.38;2061858;69;20505;-79
2024/02/12 05:26:19;;;;;;;9.85;4.68;;;;;;;4.19;78.81;91322.03;2064811;69;20176;-77
2024/02/12 05:28:44;;;;;;;24.75;8.85;;;;;;;4.42;77.39;91324.13;2065604;69;20677;-79
2024/02/12 05:31:10;;;;;;;22.05;9.07;;;;;;;4.55;76.81;91334.66;2065355;69;20148;-79
2024/02/12 05:33:36;;;;;;;17.42;7.35;;;;;;;4.58;76.47;91329.94;2065248;69;20137;-78
2024/02/12 05:36:05;;;;;;;12.73;5.40;;;;;;;4.56;76.85;91338.91;2065291;69;20592;-79
2024/02/12 05:38:31;;;;;;;8.48;4.88;;;;;;;4.63;76.76;91333.69;2065348;69;20133;-79
2024/02/12 05:40:57;;;;;;;8.50;4.75;;;;;;;4.61;76.92;91331.50;2065415;69;20589;-79
2024/02/12 05:43:22;;;;;;;11.93;6.95;;;;;;;4.65;76.77;91331.03;2065249;69;20156;-79
2024/02/12 05:45:48;;;;;;;9.52;5.35;;;;;;;4.59;76.80;91323.75;2065347;69;20611;-78
2024/02/12 05:48:13;;;;;;;7.72;4.32;;;;;;;4.39;77.27;91335.72;2065112;69;20681;-79
2024/02/12 05:50:40;;;;;;;8.02;5.22;;;;;;;4.36;78.47;91331.38;2065454;69;20156;-78
2024/02/12 05:53:08;;;;;;;22.00;12.00;;;;;;;4.50;77.76;91335.03;2064968;69;20616;-78
2024/02/12 05:55:39;;;;;;;18.10;10.05;;;;;;;4.57;77.03;91337.56;2065261;69;20160;-78
2024/02/12 05:58:12;;;;;;;15.13;8.48;;;;;;;4.58;77.11;91344.63;2065330;69;20144;-78
2024/02/12 06:00:38;;;;;;;12.38;5.60;;;;;;;4.59;77.09;91350.91;2065332;69;20669;-78
2024/02/12 06:03:04;;;;;;;15.23;7.25;;;;;;;4.39;78.00;91344.09;2065197;69;20624;-78
2024/02/12 06:05:31;;;;;;;15.48;6.60;;;;;;;4.51;77.48;91353.19;2065297;69;20188;-77
2024/02/12 06:07:57;;;;;;;8.75;4.90;;;;;;;4.56;77.00;91352.13;2065259;69;20173;-78
2024/02/12 06:10:22;;;;;;;8.75;5.32;;;;;;;4.58;76.96;91361.34;2065381;69;20149;-79
2024/02/12 06:12:48;;;;;;;7.63;5.40;;;;;;;4.61;76.78;91367.03;2065218;69;20149;-79
2024/02/12 06:15:14;;;;;;;11.77;6.07;;;;;;;4.61;77.02;91364.97;2065205;69;20720;-80
2024/02/12 06:17:39;;;;;;;7.15;4.38;;;;;;;4.61;76.99;91362.16;2065151;69;20575;-79
2024/02/12 06:20:06;;;;;;;6.10;3.20;;;;;;;4.61;76.58;91355.88;2064398;69;20148;-76
2024/02/12 06:22:32;;;;;;;9.75;6.18;;;;;;;4.39;77.61;91367.09;2065113;69;20177;-77
2024/02/12 06:24:58;;;;;;;18.65;8.52;;;;;;;4.52;77.43;91369.31;2065131;69;20165;-78
2024/02/12 06:27:23;;;;;;;9.45;6.13;;;;;;;4.65;77.11;91372.84;2065696;69;20137;-78
2024/02/12 06:29:49;;;;;;;9.55;6.28;;;;;;;4.68;76.83;91372.38;2065874;69;20670;-78
2024/02/12 06:32:15;;;;;;;11.68;6.95;;;;;;;4.69;76.72;91373.09;2065677;69;20165;-78
2024/02/12 06:34:44;;;;;;;9.60;6.13;;;;;;;4.61;76.80;91372.59;2065147;69;20197;-78
2024/02/12 06:37:11;;;;;;;14.75;8.73;;;;;;;4.67;76.81;91370.16;2065376;69;20144;-78
2024/02/12 06:39:38;;;;;;;14.95;7.80;;;;;;;4.57;76.36;91370.28;2065177;69;20153;-79
2024/02/12 06:42:04;;;;;;;9.10;5.10;;;;;;;4.67;75.98;91379.25;2065702;69;20164;-78
2024/02/12 06:44:32;;;;;;;3.58;2.50;;;;;;;4.66;75.66;91377.09;2065807;69;20214;-77
2024/02/12 06:46:58;;;;;;;2.85;2.08;;;;;;;4.58;75.94;91389.22;2065153;69;20128;-78
2024/02/12 06:49:24;;;;;;;9.43;4.80;;;;;;;4.03;78.02;91401.78;2065609;69;20151;-78
2024/02/12 06:51:49;;;;;;;8.60;4.35;;;;;;;4.18;77.65;91406.94;2065696;69;20145;-78
2024/02/12 06:54:15;;;;;;;7.43;4.88;;;;;;;3.93;77.92;91398.34;2065720;69;20141;-77
2024/02/12 06:56:41;;;;;;;9.55;5.90;;;;;;;3.61;78.69;91408.84;2065219;69;20161;-75
2024/02/12 06:59:08;;;;;;;11.63;5.75;;;;;;;3.64;79.37;91412.50;2065171;69;20148;-74
2024/02/12 07:01:33;;;;;;;10.98;5.50;;;;;;;3.56;79.05;91412.69;2065646;69;20228;-75
2024/02/12 07:04:00;;;;;;;11.55;5.70;;;;;;;3.95;78.78;91423.56;2065552;69;20240;-77
2024/02/12 07:06:26;;;;;;;12.93;5.70;;;;;;;4.07;78.24;91427.09;2065624;69;20227;-75
2024/02/12 07:08:51;;;;;;;11.75;5.70;;;;;;;4.22;77.95;91423.16;2065650;69;20165;-76
2024/02/12 07:11:17;;;;;;;11.98;6.30;;;;;;;4.26;77.76;91423.41;2065658;69;20215;-78
2024/02/12 07:13:43;;;;;;;13.65;7.25;;;;;;;4.25;77.72;91430.31;2065757;69;20532;-75
2024/02/12 07:16:22;;;;;;;12.80;7.07;;;;;;;4.36;77.43;91428.91;2065558;69;20137;-77
2024/02/12 07:22:38;;;;;;;14.68;7.15;;;;;;;4.71;76.77;91431.75;2065623;69;20230;-75
2024/02/12 07:25:04;;;;;;;15.20;7.45;;;;;;;4.67;76.99;91429.44;2065627;69;20263;-77
2024/02/12 07:27:31;;;;;;;13.15;7.40;;;;;;;4.72;75.64;91424.84;2065705;69;20137;-76
2024/02/12 07:29:56;;;;;;;12.73;7.25;;;;;;;4.67;76.18;91432.22;2065682;69;20236;-79
2024/02/12 07:32:22;;;;;;;11.52;6.88;;;;;;;4.69;75.98;91432.34;2065616;69;20248;-78
2024/02/12 07:34:50;;;;;;;12.63;7.53;;;;;;;4.69;75.89;91437.22;2065518;69;20133;-77
2024/02/12 07:37:17;;;;;;;13.30;7.25;;;;;;;4.54;76.31;91410.53;2065453;69;20584;-77
2024/02/12 07:39:43;;;;;;;12.07;7.30;;;;;;;4.64;76.44;91436.22;2065582;69;20161;-79
2024/02/12 07:42:11;;;;;;;12.48;6.20;;;;;;;4.67;76.42;91442.66;2065691;69;20160;-78
2024/02/12 07:44:38;;;;;;;11.95;6.60;;;;;;;4.68;76.31;91444.13;2065545;69;20145;-76
2024/02/12 07:47:05;;;;;;;11.40;6.32;;;;;;;4.69;76.24;91442.78;2065151;69;20149;-77
2024/02/12 07:49:32;;;;;;;11.45;5.93;;;;;;;4.64;76.44;91447.38;2065053;69;20144;-76
2024/02/12 07:52:01;;;;;;;11.52;6.75;;;;;;;4.60;76.80;91452.69;2064798;69;20551;-76
2024/02/12 07:54:28;;;;;;;16.25;6.90;;;;;;;4.62;76.56;91449.31;2065469;69;20145;-75
2024/02/12 07:56:55;;;;;;;13.88;6.63;;;;;;;4.68;75.63;91458.06;2065498;69;20528;-80
2024/02/12 07:59:21;;;;;;;10.25;6.15;;;;;;;4.38;76.73;91445.72;2065505;69;20149;-81
2024/02/12 08:01:47;;;;;;;9.82;6.10;;;;;;;4.31;77.23;91458.56;2065565;69;20199;-76
2024/02/12 08:04:12;;;;;;;14.50;6.78;;;;;;;4.46;76.78;91452.53;2065488;69;20228;-76
2024/02/12 08:06:38;;;;;;;11.57;6.88;;;;;;;4.51;76.72;91468.19;2065736;69;20137;-76
2024/02/12 08:09:04;;;;;;;11.65;6.40;;;;;;;4.61;76.98;91465.31;2065523;69;20145;-76
2024/02/12 08:11:31;;;;;;;64.00;27.83;;;;;;;4.28;78.16;91471.63;2065316;69;20184;-78
2024/02/12 08:13:57;;;;;;;18.55;9.73;;;;;;;4.39;78.26;91467.41;2064548;69;20202;-78
2024/02/12 08:16:22;;;;;;;19.73;10.13;;;;;;;4.62;78.46;91480.69;2065086;69;20157;-77
2024/02/12 08:18:48;;;;;;;22.20;11.52;;;;;;;4.75;77.41;91462.66;2065523;69;20156;-78
2024/02/12 08:21:14;;;;;;;19.98;9.70;;;;;;;4.91;77.16;91476.88;2065513;69;20140;-76
2024/02/12 08:23:39;;;;;;;24.63;12.02;;;;;;;5.09;76.73;91478.00;2065515;69;20145;-77
2024/02/12 08:26:05;;;;;;;22.90;12.15;;;;;;;5.22;76.30;91480.19;2065549;69;20152;-76
2024/02/12 08:28:31;;;;;;;20.55;11.82;;;;;;;5.30;75.56;91469.50;2065661;69;20148;-77
2024/02/12 08:30:57;;;;;;;25.02;14.13;;;;;;;5.42;75.48;91488.31;2065540;69;20125;-76
2024/02/12 08:33:26;;;;;;;21.67;12.38;;;;;;;4.98;76.93;91479.44;2065498;69;20157;-76
2024/02/12 08:35:53;;;;;;;12.50;7.63;;;;;;;4.97;77.05;91485.63;2065361;69;20577;-77
2024/02/12 08:38:20;;;;;;;10.48;6.97;;;;;;;5.01;77.37;91469.88;2065252;69;20686;-76
2024/02/12 08:40:50;;;;;;;9.52;6.22;;;;;;;5.36;78.03;91477.53;2064904;69;20236;-77
2024/02/12 08:43:18;;;;;;;10.10;5.70;;;;;;;6.08;76.05;91483.16;2065395;69;20649;-78
2024/02/12 08:45:47;;;;;;;8.40;5.50;;;;;;;6.40;75.86;91483.53;2065534;69;20489;-76
2024/02/12 08:48:13;;;;;;;11.25;7.32;;;;;;;6.80;74.92;91487.84;2065148;69;20133;-77
2024/02/12 08:50:38;;;;;;;14.77;7.40;;;;;;;7.22;74.79;91488.69;2065541;69;20674;-77
2024/02/12 08:53:04;;;;;;;15.25;7.75;;;;;;;7.21;72.49;91486.53;2065409;69;20140;-78
2024/02/12 08:55:31;;;;;;;24.42;11.73;;;;;;;7.35;71.41;91496.41;2064868;69;20585;-76
2024/02/12 08:57:56;;;;;;;18.20;9.95;;;;;;;7.41;70.37;91476.38;2065441;69;20604;-77
2024/02/12 09:00:22;;;;;;;16.45;10.40;;;;;;;6.80;70.74;91485.06;2065380;69;20164;-78
2024/02/12 09:02:48;;;;;;;13.73;7.93;;;;;;;7.06;71.14;91490.63;2064804;69;20246;-79
2024/02/12 09:05:14;;;;;;;9.88;6.57;;;;;;;7.04;70.79;91488.44;2065557;69;20152;-77
2024/02/12 09:07:40;;;;;;;8.65;5.28;;;;;;;7.66;69.17;91489.59;2065415;69;20153;-77
2024/02/12 09:10:07;;;;;;;12.30;7.13;;;;;;;7.87;68.58;91491.34;2065413;69;20149;-78
2024/02/12 09:12:39;;;;;;;10.65;6.47;;;;;;;7.93;68.67;91491.69;2065367;69;20206;-78
2024/02/12 09:15:10;;;;;;;10.93;6.63;;;;;;;8.55;66.18;91489.84;2065319;69;20137;-80
2024/02/12 09:17:36;;;;;;;11.43;5.97;;;;;;;8.59;66.13;91495.63;2065242;69;20133;-80
2024/02/12 09:20:06;;;;;;;8.52;3.80;;;;;;;8.35;64.63;91498.69;2065218;69;20674;-78
2024/02/12 09:22:35;;;;;;;7.40;3.70;;;;;;;8.93;64.06;91504.25;2064786;69;20196;-79
2024/02/12 09:25:04;;;;;;;5.78;3.90;;;;;;;9.15;64.01;91500.41;2065200;69;20168;-79
2024/02/12 09:27:30;;;;;;;6.88;4.03;;;;;;;9.35;62.51;91503.44;2065298;69;20180;-78
2024/02/12 09:29:57;;;;;;;9.77;4.78;;;;;;;9.79;62.66;91511.69;2064767;69;20141;-77
2024/02/12 09:32:24;;;;;;;10.10;5.07;;;;;;;9.89;62.97;91512.16;2065325;69;20137;-76
2024/02/12 09:34:49;;;;;;;7.25;4.88;;;;;;;10.80;62.82;91511.78;2065207;69;20140;-77
2024/02/12 09:37:18;;;;;;;7.43;4.75;;;;;;;11.28;61.64;91504.56;2065271;69;20152;-78
2024/02/12 09:39:44;;;;;;;8.45;4.93;;;;;;;11.45;59.66;91511.53;2065421;69;20177;-78
2024/02/12 09:42:15;;;;;;;8.55;5.43;;;;;;;11.74;58.23;91513.34;2065337;69;20174;-78
2024/02/12 09:44:47;;;;;;;7.35;4.55;;;;;;;12.27;56.86;91508.94;2065356;69;20148;-76
2024/02/12 09:47:16;;;;;;;5.47;4.07;;;;;;;12.25;54.38;91518.06;2065443;69;20562;-77
2024/02/12 09:49:43;;;;;;;5.55;4.03;;;;;;;12.48;55.58;91510.38;2065240;69;20264;-78
2024/02/12 09:52:13;;;;;;;5.53;4.00;;;;;;;12.46;54.32;91514.56;2065281;69;20137;-78
2024/02/12 09:54:39;;;;;;;5.70;3.80;;;;;;;13.25;53.57;91510.16;2065287;69;20166;-78
2024/02/12 09:57:05;;;;;;;5.38;3.80;;;;;;;12.67;52.16;91518.09;2065368;69;20153;-78
2024/02/12 09:59:32;;;;;;;5.72;4.25;;;;;;;12.22;52.91;91502.41;2065477;69;20156;-80
2024/02/12 10:01:58;;;;;;;6.43;4.43;;;;;;;12.81;53.49;91504.44;2065843;69;20211;-80
2024/02/12 10:04:25;;;;;;;5.57;3.88;;;;;;;13.37;53.30;91509.78;2065131;69;20179;-79
2024/02/12 10:06:57;;;;;;;6.88;4.25;;;;;;;12.98;53.22;91506.44;2065221;69;20141;-79
2024/02/12 10:09:23;;;;;;;7.38;3.90;;;;;;;13.52;51.52;91513.81;2065817;69;20160;-80
2024/02/12 10:15:36;;;;;;;6.43;3.83;;;;;;;15.09;49.55;91506.88;2065744;69;20132;-79
2024/02/12 10:18:04;;;;;;;5.38;3.80;;;;;;;14.05;49.58;91506.88;2065597;69;20164;-79
2024/02/12 10:20:29;;;;;;;5.68;3.85;;;;;;;13.89;50.29;91507.13;2065348;69;20157;-78
2024/02/12 10:22:57;;;;;;;9.20;4.15;;;;;;;13.33;51.05;91507.56;2065741;69;20149;-79
2024/02/12 10:25:23;;;;;;;5.40;3.22;;;;;;;14.04;50.14;91505.44;2065678;69;20161;-78
2024/02/12 10:27:49;;;;;;;6.43;3.20;;;;;;;15.83;47.37;91507.25;2065809;69;20145;-78
2024/02/12 10:30:18;;;;;;;3.45;2.85;;;;;;;15.65;45.78;91506.81;2065826;69;20152;-77
2024/02/12 10:32:50;;;;;;;6.40;2.92;;;;;;;15.07;45.37;91496.19;2065640;69;20531;-77
2024/02/12 10:35:15;;;;;;;3.92;2.70;;;;;;;15.99;46.79;91498.38;2065679;69;20196;-77
2024/02/12 10:41:32;;;;;;;2.95;2.20;;;;;;;18.24;42.73;91491.69;2065760;69;20124;-77
2024/02/12 10:47:46;;;;;;;10.05;3.28;;;;;;;16.97;44.02;91495.34;2065681;69;20167;-77
2024/02/12 10:50:13;;;;;;;3.80;2.53;;;;;;;13.99;47.13;91485.53;2065660;69;20156;-78
2024/02/12 10:52:41;;;;;;;5.80;2.70;;;;;;;14.93;46.69;91478.84;2065801;69;20152;-78
2024/02/12 10:55:09;;;;;;;3.28;2.35;;;;;;;15.13;47.02;91487.16;2065758;69;20180;-80
2024/02/12 10:57:43;;;;;;;3.72;2.60;;;;;;;16.38;45.66;91488.53;2065651;69;20160;-76
2024/02/12 11:00:25;;;;;;;3.45;2.20;;;;;;;16.09;44.08;91475.88;2069149;69;20156;-78
2024/02/12 11:02:55;;;;;;;3.63;2.30;;;;;;;15.98;43.25;91482.72;2066109;69;20160;-77
2024/02/12 11:05:21;;;;;;;1.98;1.65;;;;;;;16.07;43.62;91477.94;2065766;69;20138;-77
2024/02/12 11:07:47;;;;;;;3.33;2.08;;;;;;;17.28;42.61;91479.56;2065650;69;20151;-78
2024/02/12 11:10:26;;;;;;;2.97;1.60;;;;;;;19.11;38.96;91477.75;2065649;69;20149;-77
2024/02/12 11:12:51;;;;;;;5.82;3.00;;;;;;;19.20;38.18;91475.69;2065125;69;20137;-77
2024/02/12 11:15:27;;;;;;;10.15;6.85;;;;;;;18.70;37.66;91482.28;2065802;69;20148;-80
2024/02/12 11:17:54;;;;;;;8.80;6.70;;;;;;;19.85;36.55;91484.09;2065565;69;20184;-78
2024/02/12 11:20:25;;;;;;;6.97;4.85;;;;;;;19.02;36.64;91476.94;2065598;69;20152;-79
2024/02/12 11:22:52;;;;;;;1.52;1.23;;;;;;;18.19;36.90;91479.50;2065604;69;20156;-79
2024/02/12 11:25:18;;;;;;;1.23;1.00;;;;;;;19.39;36.58;91480.13;2065514;69;20164;-79
2024/02/12 11:27:57;;;;;;;0.40;0.40;;;;;;;17.41;35.59;91483.31;2065598;69;20141;-79
2024/02/12 11:30:23;;;;;;;1.10;0.50;;;;;;;18.03;36.26;91477.16;2065624;69;20181;-79
2024/02/12 11:32:49;;;;;;;2.35;1.23;;;;;;;16.45;36.47;91478.75;2065516;69;20165;-78
2024/02/12 11:35:18;;;;;;;0.60;0.47;;;;;;;16.45;36.06;91475.19;2065001;69;20133;-79
2024/02/12 11:37:46;;;;;;;2.58;1.63;;;;;;;15.91;37.77;91479.03;2065863;69;20615;-78
2024/02/12 11:40:19;;;;;;;1.33;1.20;;;;;;;16.35;38.02;91472.13;2065565;69;20141;-82
2024/02/12 11:42:51;;;;;;;1.25;1.10;;;;;;;17.08;37.52;91478.47;2065533;69;20149;-81
2024/02/12 11:45:20;;;;;;;1.08;0.70;;;;;;;18.34;37.04;91476.84;2065534;69;20148;-78
2024/02/12 11:47:46;;;;;;;3.13;2.00;;;;;;;17.36;38.80;91484.63;2065648;69;20184;-77
2024/02/12 11:50:24;;;;;;;1.52;1.10;;;;;;;16.02;39.83;91482.81;2065544;69;20179;-77
2024/02/12 11:52:51;;;;;;;2.50;1.23;;;;;;;15.68;40.76;91475.00;2064987;69;20152;-76
2024/02/12 11:55:16;;;;;;;2.17;1.35;;;;;;;15.41;41.46;91473.66;2065613;69;20145;-77
2024/02/12 11:57:43;;;;;;;4.40;1.52;;;;;;;15.03;42.03;91479.13;2065224;69;20156;-77
2024/02/12 12:00:16;;;;;;;1.67;1.25;;;;;;;14.91;41.79;91479.53;2065548;69;20137;-78
2024/02/12 12:02:55;;;;;;;1.48;1.10;;;;;;;15.60;40.85;91482.56;2065545;69;20168;-78
2024/02/12 12:05:25;;;;;;;1.52;1.20;;;;;;;15.94;41.63;91477.69;2065664;69;20148;-78
2024/02/12 12:07:52;;;;;;;2.03;1.00;;;;;;;14.49;42.49;91479.13;2064735;69;20156;-77
2024/02/12 12:10:35;;;;;;;1.85;1.00;;;;;;;15.64;41.67;91480.56;2065408;69;20153;-78
2024/02/12 12:13:01;;;;;;;1.45;0.90;;;;;;;15.49;41.54;91479.50;2065392;69;20149;-78
2024/02/12 12:15:30;;;;;;;1.25;0.82;;;;;;;15.07;42.26;91472.81;2065596;69;20156;-78
2024/02/12 12:17:59;;;;;;;1.23;0.80;;;;;;;14.44;43.45;91469.06;2065415;69;20203;-77
2024/02/12 12:20:29;;;;;;;2.50;1.10;;;;;;;15.15;41.76;91470.88;2065474;69;20535;-78
2024/02/12 12:22:55;;;;;;;2.17;1.30;;;;;;;13.76;44.91;91474.94;2065491;69;20160;-77
2024/02/12 12:25:21;;;;;;;5.63;1.65;;;;;;;13.85;44.87;91462.47;2064839;69;20141;-78